FW7556 Weather Reports


Display with metric or nautical units.
time (UTC)temp
F
wind
direction
speed
MPH
gust
MPH
rain 1hr
in
rain 24hr
in
rain mn
in
humidity
%
barometer
mb
20260508035359 50 15 0.0 0.0 0.00 0.38 0.38 90 1013.9
20260508034856 50 15 0.0 0.0 0.00 0.38 0.38 90 1013.9
20260508034354 50 15 0.0 0.0 0.00 0.38 0.38 90 1014.0
20260508033850 50 15 0.0 0.0 0.00 0.38 0.38 90 1013.8
20260508033348 50 15 0.0 1.0 0.00 0.38 0.38 90 1013.9
20260508032846 50 0 0.0 0.0 0.00 0.38 0.38 90 1013.9
20260508032343 50 0 0.0 0.0 0.00 0.38 0.38 90 1013.8
20260508031839 50 0 0.0 0.0 0.00 0.38 0.38 90 1013.8
20260508031336 50 0 0.0 0.0 0.00 0.38 0.38 90 1013.6
20260508030827 51 0 0.0 0.0 0.00 0.38 0.38 90 1013.7
20260508030324 51 0 0.0 0.0 0.00 0.38 0.38 90 1013.7
20260508025821 51 0 0.0 0.0 0.00 0.38 0.38 90 1013.8
20260508025318 51 0 0.0 0.0 0.00 0.38 0.38 90 1013.8
20260508024814 51 0 0.0 0.0 0.00 0.38 0.38 90 1013.8
20260508024311 51 0 0.0 0.0 0.00 0.38 0.38 90 1013.3
20260508023808 51 0 0.0 0.0 0.00 0.38 0.38 90 1013.6
20260508023305 51 0 0.0 0.0 0.00 0.38 0.38 90 1013.2
20260508022801 52 0 0.0 0.0 0.00 0.38 0.38 90 1013.1
20260508022257 52 0 0.0 0.0 0.00 0.38 0.38 90 1013.1
20260508021754 52 0 0.0 0.0 0.00 0.38 0.38 90 1013.2
20260508021250 52 0 0.0 0.0 0.00 0.38 0.38 90 1013.2
20260508020747 52 0 0.0 0.0 0.00 0.38 0.38 90 1013.3
20260508020245 53 0 0.0 0.0 0.00 0.38 0.38 90 1012.8
20260508015741 53 0 0.0 0.0 0.00 0.38 0.38 90 1012.9
20260508015238 53 0 0.0 0.0 0.00 0.38 0.38 90 1012.7
20260508014735 53 0 0.0 0.0 0.00 0.38 0.38 90 1012.8
20260508014232 53 0 0.0 0.0 0.00 0.38 0.38 90 1012.6
20260508013728 54 0 0.0 0.0 0.00 0.38 0.38 90 1012.7
20260508013224 54 0 0.0 0.0 0.00 0.38 0.38 90 1012.6
20260508012722 54 0 0.0 0.0 0.00 0.38 0.38 90 1012.3
20260508012219 54 0 0.0 0.0 0.00 0.38 0.38 90 1012.2
20260508011717 55 0 0.0 0.0 0.00 0.38 0.38 90 1012.4
20260508011214 55 0 0.0 0.0 0.00 0.38 0.38 90 1012.1
20260508010711 55 0 0.0 0.0 0.00 0.38 0.38 90 1012.1
20260508010209 55 0 0.0 0.0 0.00 0.38 0.38 90 1012.2
20260508005706 55 0 0.0 0.0 0.00 0.38 0.38 90 1012.1
20260508005202 55 0 0.0 0.0 0.00 0.38 0.38 90 1012.0
20260508004658 55 0 0.0 0.0 0.00 0.38 0.38 90 1012.0
20260508004154 55 0 0.0 0.0 0.00 0.38 0.38 90 1012.1
20260508003651 55 0 0.0 0.0 0.00 0.38 0.38 90 1012.4
20260508003149 55 0 0.0 0.0 0.00 0.38 0.38 90 1012.3
20260508002645 55 0 0.0 0.0 0.00 0.38 0.38 90 1012.4
20260508002143 55 0 0.0 0.0 0.00 0.38 0.38 90 1012.2
20260508001638 55 0 0.0 0.0 0.00 0.38 0.38 90 1012.3
20260508001134 55 0 0.0 0.0 0.00 0.38 0.38 90 1012.3
20260508000630 55 0 0.0 0.0 0.00 0.38 0.38 90 1012.0
20260508000128 55 0 0.0 0.0 0.00 0.38 0.38 90 1012.0
20260507235624 55 0 0.0 3.0 0.00 0.38 0.38 90 1011.9
20260507235122 55 0 1.0 2.0 0.00 0.38 0.38 90 1011.5
20260507234618 55 0 0.0 1.0 0.00 0.38 0.38 90 1011.8
20260507234114 55 8 0.0 0.0 0.00 0.38 0.38 90 1011.9
20260507233611 55 348 0.0 2.0 0.00 0.38 0.38 90 1011.6
20260507233110 55 54 0.0 0.0 0.00 0.38 0.38 90 1011.6
20260507232606 56 353 0.0 0.0 0.00 0.38 0.38 90 1011.3
20260507232103 56 353 0.0 0.0 0.00 0.38 0.38 90 1011.1
20260507231600 56 0 0.0 1.0 0.00 0.38 0.38 90 1011.1
20260507231057 56 0 0.0 0.0 0.00 0.38 0.38 90 1011.0
20260507230553 56 345 0.0 1.0 0.00 0.38 0.38 90 1011.1
20260507230050 56 69 0.0 2.0 0.00 0.38 0.38 90 1011.1
20260507225545 56 90 0.0 2.0 0.00 0.38 0.38 90 1011.1
20260507225042 56 270 0.0 0.0 0.00 0.38 0.38 90 1011.1
20260507224537 56 300 0.0 2.0 0.00 0.38 0.38 90 1011.0
20260507224034 56 90 0.0 0.0 0.00 0.38 0.38 90 1010.9
20260507223530 56 90 0.0 2.0 0.00 0.38 0.38 90 1011.0
20260507223028 56 353 0.0 3.0 0.00 0.38 0.38 90 1010.8
20260507222525 56 90 0.0 1.0 0.00 0.38 0.38 90 1010.7
20260507222021 56 63 0.0 2.0 0.00 0.38 0.38 90 1010.9
20260507221517 56 90 0.0 2.0 0.00 0.38 0.38 90 1010.7
20260507221014 56 90 0.0 1.0 0.00 0.38 0.38 90 1010.7
20260507220512 56 340 0.0 4.0 0.00 0.38 0.38 90 1010.6
20260507220009 57 90 0.0 2.0 0.00 0.38 0.38 90 1010.7
20260507215505 57 74 0.0 1.0 0.00 0.38 0.38 90 1010.5
20260507215003 56 90 0.0 2.0 0.00 0.38 0.38 90 1010.6
20260507214459 57 350 2.0 7.0 0.00 0.38 0.38 90 1010.8
20260507213955 57 23 2.0 3.0 0.00 0.38 0.38 90 1011.0
20260507213452 57 74 2.0 3.0 0.00 0.38 0.38 90 1010.7
20260507212949 57 14 0.0 2.0 0.00 0.38 0.38 90 1010.3
20260507212444 57 297 2.0 4.0 0.00 0.38 0.38 90 1010.6
20260507211942 57 307 3.0 3.0 0.00 0.38 0.38 90 1010.3
20260507211438 57 353 0.0 3.0 0.00 0.38 0.38 90 1010.8
20260507210935 56 75 1.0 4.0 0.00 0.38 0.38 90 1010.6
20260507210432 56 56 0.0 3.0 0.00 0.38 0.38 90 1010.4
20260507205928 56 263 1.0 4.0 0.00 0.38 0.38 90 1010.4
20260507205426 56 0 1.0 7.0 0.00 0.38 0.38 90 1010.7
20260507204922 56 23 0.0 5.0 0.00 0.38 0.38 90 1010.6
20260507204418 56 5 0.0 3.0 0.00 0.38 0.38 90 1010.6
20260507203916 56 90 1.0 3.0 0.00 0.38 0.38 90 1010.4
20260507203414 56 175 0.0 3.0 0.00 0.38 0.38 90 1010.6
20260507202910 56 50 0.0 3.0 0.07 0.38 0.38 90 1010.7
20260507202407 55 35 0.0 2.0 0.07 0.38 0.38 90 1010.6
20260507201902 55 90 0.0 1.0 0.12 0.37 0.37 90 1010.7
20260507201358 55 350 2.0 2.0 0.19 0.37 0.37 90 1010.9
20260507200854 55 337 0.0 3.0 0.12 0.35 0.35 90 1011.0
20260507200350 56 289 0.0 3.0 0.17 0.34 0.34 89 1010.5
20260507195847 56 112 2.0 3.0 0.19 0.33 0.33 89 1010.6
20260507195344 56 312 0.0 5.0 0.00 0.30 0.30 89 1010.7
20260507194841 56 54 0.0 2.0 0.00 0.30 0.30 90 1011.0
20260507194337 56 0 0.0 2.0 0.00 0.30 0.30 90 1010.7
20260507193834 56 48 2.0 3.0 0.00 0.30 0.30 90 1010.3
20260507193332 56 21 0.0 2.0 0.00 0.30 0.30 90 1010.7
20260507192827 56 262 0.0 3.0 0.00 0.30 0.30 90 1010.2
20260507192324 56 25 3.0 3.0 0.00 0.30 0.30 90 1010.3
20260507191820 56 15 0.0 2.0 0.00 0.30 0.30 90 1010.6
20260507191317 56 32 1.0 7.0 0.00 0.30 0.30 90 1010.6
20260507190814 57 16 2.0 4.0 0.00 0.30 0.30 90 1010.6
20260507190312 57 60 1.0 3.0 0.00 0.30 0.30 90 1010.5
20260507185811 57 23 1.0 2.0 0.00 0.30 0.30 90 1010.6
20260507185307 57 275 0.0 4.0 0.00 0.30 0.30 90 1010.7
20260507184804 57 121 3.0 4.0 0.00 0.30 0.30 90 1010.7
20260507184302 57 12 1.0 2.0 0.00 0.30 0.30 90 1010.8
20260507183758 57 283 0.0 4.0 0.00 0.30 0.30 89 1010.3
20260507183256 57 0 4.0 4.0 0.00 0.30 0.30 89 1010.8
20260507182753 57 334 4.0 5.0 0.00 0.30 0.30 90 1010.6
20260507182248 58 253 0.0 2.0 0.00 0.30 0.30 90 1010.7
20260507181745 57 29 0.0 1.0 0.00 0.30 0.30 90 1010.4
20260507181241 57 172 0.0 3.0 0.00 0.30 0.30 90 1010.5
20260507180738 57 53 3.0 4.0 0.00 0.30 0.30 90 1010.5
20260507180235 57 7 3.0 3.0 0.00 0.30 0.30 90 1010.7
20260507175730 57 114 0.0 3.0 0.00 0.30 0.30 89 1010.7
20260507175228 57 86 3.0 5.0 0.00 0.30 0.30 89 1010.5
20260507174725 58 4 2.0 3.0 0.00 0.30 0.30 90 1010.8
20260507174223 58 77 1.0 4.0 0.00 0.30 0.30 89 1010.8
20260507173720 58 348 0.0 5.0 0.00 0.30 0.30 89 1010.9
20260507173217 59 70 0.0 2.0 0.00 0.30 0.30 89 1010.8
20260507172714 59 29 2.0 3.0 0.00 0.30 0.30 89 1010.8
20260507172210 60 63 2.0 4.0 0.00 0.30 0.30 90 1010.9
20260507171704 60 26 0.0 3.0 0.00 0.30 0.30 90 1010.9
20260507171202 60 17 2.0 3.0 0.00 0.30 0.30 90 1010.8
20260507170658 61 319 0.0 3.0 0.00 0.30 0.30 90 1010.4
20260507170156 61 66 1.0 5.0 0.00 0.30 0.30 90 1010.5
20260507165652 61 203 1.0 4.0 0.00 0.30 0.30 90 1010.2
20260507165148 61 96 0.0 2.0 0.00 0.30 0.30 90 1010.2
20260507164644 61 0 0.0 3.0 0.00 0.30 0.30 90 1009.9
20260507164141 61 35 0.0 3.0 0.00 0.30 0.30 90 1009.6
20260507163638 61 352 4.0 5.0 0.00 0.30 0.30 90 1009.7
20260507163136 61 338 2.0 4.0 0.05 0.30 0.30 90 1009.9
20260507162632 62 26 2.0 3.0 0.00 0.29 0.29 90 1009.6
20260507162128 62 114 1.0 5.0 0.00 0.29 0.29 90 1010.1
20260507161624 62 6 1.0 3.0 0.00 0.29 0.29 90 1009.9
20260507161121 62 240 0.0 5.0 0.00 0.29 0.29 90 1010.2
20260507160618 62 355 0.0 0.0 0.00 0.29 0.29 90 1010.3
20260507160114 62 81 0.0 2.0 0.00 0.29 0.29 90 1010.4
20260507155609 62 32 0.0 2.0 0.00 0.29 0.29 90 1010.4
20260507155107 62 15 0.0 1.0 0.00 0.29 0.29 90 1010.5
20260507154604 63 29 0.0 3.0 0.00 0.29 0.29 89 1010.4
20260507154100 63 90 0.0 0.0 0.00 0.29 0.29 89 1010.7
20260507153557 64 354 0.0 2.0 0.00 0.29 0.29 90 1010.8
20260507153053 64 356 2.0 2.0 0.00 0.29 0.29 90 1010.6
20260507152550 64 261 0.0 0.0 0.00 0.29 0.29 90 1010.4
20260507152046 64 261 0.0 0.0 0.00 0.29 0.29 90 1010.7
20260507151542 64 261 0.0 0.0 0.00 0.29 0.29 90 1010.8
20260507151039 64 35 0.0 3.0 0.00 0.29 0.29 90 1010.7
20260507150536 64 0 0.0 0.0 0.00 0.29 0.29 90 1011.1
20260507150028 64 0 0.0 0.0 0.00 0.29 0.29 90 1010.3
20260507145522 64 0 0.0 1.0 0.00 0.29 0.29 90 1010.2
20260507145020 64 0 0.0 0.0 0.00 0.29 0.29 90 1009.9
20260507144516 64 0 0.0 1.0 0.00 0.29 0.29 90 1009.8
20260507144014 64 48 0.0 2.0 0.00 0.29 0.29 90 1010.1
20260507143511 64 0 0.0 0.0 0.00 0.29 0.29 90 1010.4
20260507143009 64 5 1.0 1.0 0.07 0.29 0.29 90 1010.3
20260507142504 64 180 0.0 0.0 0.00 0.28 0.28 90 1010.3
20260507142001 64 180 0.0 0.0 0.00 0.28 0.28 90 1010.2
20260507141456 64 180 0.0 0.0 0.00 0.28 0.28 90 1010.4
20260507140948 64 180 0.0 0.0 0.05 0.28 0.28 90 1010.4
20260507140444 64 23 0.0 2.0 0.05 0.28 0.28 90 1010.1
20260507135942 64 0 0.0 0.0 0.07 0.27 0.27 90 1010.1
20260507135438 64 0 0.0 0.0 0.12 0.27 0.27 90 1010.3
20260507134936 64 286 0.0 1.0 0.19 0.26 0.26 90 1009.9
20260507134432 64 286 0.0 0.0 0.12 0.24 0.24 90 1009.7
20260507133928 64 270 0.0 0.0 0.05 0.23 0.23 90 1009.8
20260507133424 64 270 0.0 0.0 0.07 0.22 0.22 90 1009.8
20260507132923 64 270 0.0 0.0 0.12 0.22 0.22 90 1010.2
20260507132419 64 270 0.0 1.0 0.17 0.21 0.21 90 1009.9
20260507131915 64 90 0.0 0.0 0.19 0.20 0.20 90 1010.4
20260507131413 64 90 0.0 0.0 0.12 0.18 0.18 89 1010.5
20260507130910 64 90 0.0 0.0 0.17 0.17 0.17 89 1011.0
20260507130406 64 106 0.0 1.0 0.24 0.15 0.15 89 1011.1
20260507125906 64 157 0.0 0.0 0.26 0.14 0.14 89 1011.3
20260507125403 64 157 0.0 0.0 0.19 0.13 0.13 89 1011.3
20260507124900 64 180 0.0 1.0 0.05 0.10 0.10 89 1011.4
20260507124355 64 345 0.0 0.0 0.07 0.09 0.09 89 1011.4
20260507123855 64 345 0.0 0.0 0.00 0.08 0.08 89 1011.3
20260507123351 64 345 0.0 1.0 0.05 0.08 0.08 89 1011.3
20260507122848 64 12 0.0 0.0 0.12 0.08 0.08 89 1011.2
20260507122343 64 12 0.0 2.0 0.05 0.06 0.06 89 1010.9
20260507121840 64 12 0.0 2.0 0.05 0.06 0.06 89 1010.9
20260507121335 64 246 0.0 1.0 0.00 0.05 0.05 89 1010.9
20260507120832 64 0 0.0 2.0 0.00 0.05 0.05 89 1010.8
20260507120328 64 345 0.0 0.0 0.00 0.05 0.05 89 1011.0
20260507115825 64 345 0.0 0.0 0.07 0.05 0.05 89 1011.0
20260507115320 64 345 0.0 0.0 0.07 0.05 0.05 89 1010.9
20260507114816 64 345 0.0 0.0 0.00 0.04 0.04 89 1010.6
20260507114314 64 340 0.0 1.0 0.00 0.04 0.04 89 1010.8
20260507113811 64 345 0.0 0.0 0.00 0.04 0.04 89 1011.0
20260507113308 64 345 0.0 0.0 0.00 0.04 0.04 89 1010.6
20260507112806 64 345 0.0 0.0 0.00 0.04 0.04 89 1010.7
20260507112306 64 345 0.0 0.0 0.05 0.04 0.04 89 1010.7
20260507111800 64 7 0.0 1.0 0.05 0.04 0.04 89 1010.5
20260507111256 63 195 0.0 0.0 0.00 0.03 0.03 89 1010.5
20260507110752 64 195 0.0 0.0 0.00 0.03 0.03 89 1010.3
20260507110249 63 195 0.0 0.0 0.00 0.03 0.03 89 1010.8
20260507105746 63 195 0.0 0.0 0.00 0.03 0.03 89 1010.6
20260507105236 64 195 0.0 0.0 0.00 0.03 0.03 89 1010.7
20260507104734 63 195 0.0 0.0 0.00 0.03 0.03 89 1010.7
20260507104231 64 195 0.0 0.0 0.00 0.03 0.03 89 1010.7
20260507103726 64 195 0.0 0.0 0.00 0.03 0.03 89 1010.2
20260507103223 63 195 0.0 0.0 0.00 0.03 0.03 89 1010.5
20260507102719 63 215 0.0 2.0 0.00 0.03 0.03 89 1010.3
20260507102215 64 180 0.0 0.0 0.00 0.03 0.03 89 1010.3
20260507101711 64 180 0.0 0.0 0.00 0.03 0.03 89 1010.3
20260507101206 63 180 0.0 0.0 0.00 0.03 0.03 89 1010.4
20260507100704 63 187 0.0 0.0 0.00 0.03 0.03 89 1010.6
20260507100203 64 187 0.0 0.0 0.00 0.03 0.03 89 1010.6
20260507095701 63 187 0.0 0.0 0.00 0.03 0.03 89 1010.3
20260507095157 63 187 0.0 0.0 0.00 0.03 0.03 89 1010.4
20260507094654 63 187 0.0 0.0 0.00 0.03 0.03 89 1010.8
20260507094150 63 187 0.0 0.0 0.00 0.03 0.03 89 1010.6
20260507093648 64 187 0.0 0.0 0.00 0.03 0.03 89 1010.4
20260507093147 63 187 0.0 0.0 0.00 0.03 0.03 89 1010.5
20260507092643 63 126 0.0 1.0 0.00 0.03 0.03 88 1010.4
20260507092139 64 90 0.0 0.0 0.00 0.03 0.03 88 1010.6
20260507091636 64 286 0.0 0.0 0.00 0.03 0.03 88 1011.3
20260507091132 64 325 0.0 1.0 0.00 0.03 0.03 88 1011.0
20260507090627 64 8 0.0 2.0 0.00 0.03 0.03 88 1010.5
20260507090125 64 203 2.0 2.0 0.00 0.03 0.03 88 1010.2
20260507085622 64 210 2.0 2.0 0.00 0.03 0.03 88 1010.3
20260507085118 64 180 0.0 1.0 0.00 0.03 0.03 88 1010.1
20260507084615 64 209 0.0 1.0 0.00 0.03 0.03 88 1009.8
20260507084112 64 255 1.0 3.0 0.00 0.03 0.03 88 1010.1
20260507083609 64 234 0.0 3.0 0.00 0.03 0.03 88 1009.9
20260507083106 64 220 2.0 2.0 0.00 0.03 0.03 88 1010.3
20260507082602 64 180 0.0 5.0 0.00 0.03 0.03 88 1009.9
20260507082058 64 246 1.0 4.0 0.00 0.03 0.03 88 1010.5
20260507081554 64 206 2.0 4.0 0.00 0.03 0.03 88 1010.2
20260507081052 64 236 0.0 4.0 0.00 0.03 0.03 88 1010.3
20260507080547 64 180 2.0 3.0 0.00 0.03 0.03 88 1010.2
20260507080044 64 157 2.0 3.0 0.07 0.03 0.03 88 1010.3
20260507075539 64 189 2.0 3.0 0.07 0.03 0.03 88 1010.2
20260507075036 64 203 0.0 2.0 0.00 0.02 0.02 88 1010.9
20260507074532 64 180 0.0 3.0 0.00 0.02 0.02 88 1010.6
20260507074031 64 98 0.0 3.0 0.00 0.02 0.02 88 1011.0
20260507073527 63 180 0.0 0.0 0.00 0.02 0.02 88 1011.4
20260507073024 63 214 2.0 4.0 0.00 0.02 0.02 88 1010.8
20260507072521 63 174 1.0 3.0 0.05 0.02 0.02 88 1011.0
20260507072018 63 106 0.0 0.0 0.00 0.01 0.01 87 1011.3
20260507071516 63 106 0.0 2.0 0.00 0.01 0.01 87 1011.0
20260507071012 63 124 2.0 2.0 0.00 0.01 0.01 87 1011.1
20260507070509 63 90 0.0 0.0 0.00 0.01 0.01 87 1011.2
20260507070010 63 90 0.0 0.0 0.00 0.01 0.01 87 1011.4
20260507065502 63 90 0.0 0.0 0.00 0.01 0.01 87 1011.2
20260507064959 63 90 0.0 0.0 0.00 0.01 0.01 87 1011.0
20260507064458 63 90 0.0 0.0 0.00 0.01 0.01 87 1011.2
20260507063955 63 90 0.0 1.0 0.00 0.01 0.01 87 1010.9
20260507063452 63 270 0.0 0.0 0.00 0.01 0.01 87 1011.1
20260507062949 63 270 0.0 0.0 0.00 0.01 0.01 87 1011.4
20260507062447 63 270 0.0 1.0 0.00 0.01 0.01 87 1011.8
20260507061944 64 255 0.0 0.0 0.00 0.01 0.01 87 1011.3
20260507061442 64 191 2.0 3.0 0.00 0.01 0.01 87 1011.7
20260507060940 64 117 1.0 1.0 0.00 0.01 0.01 87 1012.1
20260507060436 63 180 2.0 5.0 0.00 0.01 0.01 87 1012.3
20260507055933 63 203 3.0 5.0 0.00 0.01 0.01 87 1012.4
20260507055428 63 243 0.0 3.0 0.00 0.01 0.01 87 1012.4
20260507054925 63 171 0.0 2.0 0.00 0.01 0.01 86 1012.5
20260507054421 63 254 0.0 1.0 0.00 0.01 0.01 86 1012.5
20260507053919 63 220 2.0 3.0 0.00 0.01 0.01 86 1012.5
20260507053416 63 257 0.0 1.0 0.07 0.01 0.01 86 1012.2
20260507052915 63 165 0.0 2.0 0.07 0.01 0.01 86 1012.4
20260507052412 63 186 0.0 1.0 0.00 0.00 0.00 86 1013.0
20260507051903 63 254 0.0 1.0 0.00 0.00 0.00 86 1012.9
20260507051401 63 209 1.0 1.0 0.00 0.00 0.00 86 1012.2
20260507050858 63 270 0.0 1.0 0.00 0.00 0.00 85 1012.6
20260507050354 63 270 0.0 0.0 0.00 0.00 0.00 85 1012.6
20260507045851 63 270 0.0 0.0 0.00 0.00 0.00 85 1012.5
20260507045347 64 270 0.0 0.0 0.00 0.00 0.00 85 1012.8
20260507044845 64 212 0.0 2.0 0.00 0.00 0.00 85 1012.7
20260507044341 64 261 0.0 0.0 0.00 0.00 0.00 85 1012.6
20260507043837 64 261 0.0 0.0 0.00 0.00 0.00 85 1012.5
20260507043334 64 254 0.0 0.0 0.00 0.00 0.00 85 1012.5
20260507042830 64 254 0.0 1.0 0.00 0.00 0.00 85 1012.6
20260507042326 64 240 0.0 2.0 0.00 0.00 0.00 85 1012.2
20260507041823 64 229 2.0 2.0 0.00 0.00 0.00 85 1012.1
20260507041320 64 195 2.0 2.0 0.00 0.00 0.00 85 1012.1
20260507040817 65 225 2.0 6.0 0.00 0.00 0.00 85 1012.5
20260507040313 65 228 2.0 4.0 0.00 0.00 0.00 85 1012.5